Time;durP1;ratioP1;P1;durP2;ratioP2;P2;SDS_P1;SDS_P2;PMS_P1;PMS_P2;Temp;Humidity;BMP_temperature;BMP_pressure;BME280_temperature;BME280_humidity;BME280_pressure;Samples;Min_cycle;Max_cycle;Signal;HPM_P1;HPM_P2
2022/05/21 00:02:57;;;;;;;6.70;1.17;;;;;;;15.10;77.91;101129.69;5015370;28;20160;-77
2022/05/21 00:06:00;;;;;;;7.05;1.25;;;;;;;15.10;77.90;101127.06;5015099;28;20080;-77
2022/05/21 00:09:04;;;;;;;8.30;1.30;;;;;;;14.94;78.12;101128.94;5015185;28;20044;-77
2022/05/21 00:12:07;;;;;;;9.20;1.20;;;;;;;14.81;77.66;101125.38;5015041;28;20123;-77
2022/05/21 00:15:14;;;;;;;7.00;1.00;;;;;;;14.93;78.15;101132.50;5015055;28;20405;-77
2022/05/21 00:18:19;;;;;;;11.82;1.00;;;;;;;14.76;77.81;101140.56;5015125;28;20112;-77
2022/05/21 00:21:23;;;;;;;3.67;1.17;;;;;;;14.53;77.93;101140.16;5014395;28;20064;-77
2022/05/21 00:24:28;;;;;;;4.30;1.10;;;;;;;14.47;76.47;101144.91;5014781;28;20053;-77
2022/05/21 00:27:31;;;;;;;8.20;1.35;;;;;;;14.65;74.39;101147.34;5014913;28;20405;-77
2022/05/21 00:30:35;;;;;;;9.73;1.60;;;;;;;14.35;75.15;101143.84;5014828;28;20044;-77
2022/05/21 00:33:40;;;;;;;13.57;1.55;;;;;;;14.40;73.74;101154.94;5014801;28;20049;-77
2022/05/21 00:36:43;;;;;;;3.33;1.50;;;;;;;14.44;73.46;101153.81;5014712;28;20175;-77
2022/05/21 00:39:46;;;;;;;9.65;1.63;;;;;;;14.41;73.36;101156.63;5014717;28;20048;-77
2022/05/21 00:42:50;;;;;;;12.45;2.13;;;;;;;14.64;72.79;101166.72;5014760;28;20052;-77
2022/05/21 00:45:53;;;;;;;7.85;2.50;;;;;;;14.70;73.35;101167.25;5014635;28;20501;-77
2022/05/21 00:49:04;;;;;;;4.32;1.48;;;;;;;14.57;75.04;101172.41;5013532;28;20453;-77
2022/05/21 00:52:14;;;;;;;8.93;1.77;;;;;;;14.45;75.18;101173.91;5014040;28;20073;-77
2022/05/21 00:55:22;;;;;;;9.05;1.48;;;;;;;14.36;75.14;101177.13;5014445;28;20087;-77
2022/05/21 01:01:56;;;;;;;6.25;1.90;;;;;;;13.90;76.68;101184.97;4649917;28;9999719;-77
2022/05/21 01:05:02;;;;;;;11.45;2.00;;;;;;;13.96;76.45;101187.25;5010524;28;20053;-77
2022/05/21 01:08:06;;;;;;;4.90;2.03;;;;;;;13.90;76.83;101182.34;5010538;28;20060;-77
2022/05/21 01:11:15;;;;;;;3.80;1.60;;;;;;;13.75;76.64;101191.06;5010722;28;20088;-77
2022/05/21 01:14:22;;;;;;;6.47;1.73;;;;;;;13.70;76.56;101197.44;4998519;28;20045;-77
2022/05/21 01:17:26;;;;;;;10.90;1.90;;;;;;;13.68;77.21;101203.69;5010700;28;20480;-77
2022/05/21 01:20:47;;;;;;;4.53;2.20;;;;;;;13.38;77.72;101201.78;5009518;28;20180;-77
2022/05/21 01:23:50;;;;;;;10.77;2.53;;;;;;;13.19;78.59;101209.75;5009556;28;20084;-77
2022/05/21 01:26:54;;;;;;;7.22;2.00;;;;;;;13.26;78.30;101197.19;5010636;28;20044;-77
2022/05/21 01:30:01;;;;;;;7.35;2.10;;;;;;;13.07;78.48;101202.50;5010386;28;20475;-77
2022/05/21 01:33:07;;;;;;;7.63;1.70;;;;;;;13.19;78.54;101207.13;5009016;28;20100;-77
2022/05/21 01:36:13;;;;;;;6.93;2.38;;;;;;;12.72;79.75;101217.44;4997438;28;20133;-77
2022/05/21 01:39:17;;;;;;;7.35;2.03;;;;;;;12.81;79.66;101214.34;5009911;28;20528;-77
2022/05/21 01:42:20;;;;;;;8.82;1.88;;;;;;;12.87;79.64;101216.66;5010217;28;20170;-77
2022/05/21 01:45:24;;;;;;;6.28;2.10;;;;;;;12.89;79.05;101213.94;5009960;28;20413;-77
2022/05/21 02:20:31;;;;;;;4.78;1.90;;;;;;;11.95;81.90;101236.03;4981580;28;20058;-77
2022/05/21 02:23:35;;;;;;;10.32;2.85;;;;;;;12.13;81.34;101236.94;5008812;28;20072;-77
2022/05/21 02:26:39;;;;;;;7.90;2.53;;;;;;;12.08;80.98;101245.00;4989787;28;20080;-77
2022/05/21 02:29:43;;;;;;;7.07;2.70;;;;;;;12.13;81.09;101245.66;4989484;28;20053;-77
2022/05/21 02:32:46;;;;;;;8.88;2.83;;;;;;;12.14;80.86;101246.50;4990155;28;20081;-77
2022/05/21 02:35:49;;;;;;;14.30;3.08;;;;;;;12.39;80.01;101240.94;4989295;28;20077;-77
2022/05/21 02:45:37;;;;;;;9.75;3.25;;;;;;;12.43;79.19;101242.47;4989324;28;20219;-77
2022/05/21 02:48:41;;;;;;;5.55;3.50;;;;;;;12.13;80.20;101237.78;4989097;28;20053;-77
2022/05/21 02:51:45;;;;;;;4.50;2.75;;;;;;;12.11;80.12;101237.00;4995215;28;20083;-77
2022/05/21 02:54:49;;;;;;;5.47;2.88;;;;;;;12.27;79.58;101234.50;5007746;28;20131;-77
2022/05/21 02:57:53;;;;;;;10.38;3.17;;;;;;;12.18;79.64;101227.91;5009304;28;20090;-77
2022/05/21 03:00:56;;;;;;;7.32;3.35;;;;;;;12.06;80.13;101238.97;5008103;28;20628;-77
2022/05/21 03:04:01;;;;;;;8.68;3.25;;;;;;;12.07;80.19;101236.31;5008732;28;20053;-77
2022/05/21 03:07:04;;;;;;;6.05;2.85;;;;;;;12.11;80.00;101221.28;4992629;28;20062;-77
2022/05/21 03:10:21;;;;;;;5.32;3.15;;;;;;;12.10;79.97;101223.06;4989230;28;20061;-77
2022/05/21 03:13:24;;;;;;;5.70;3.00;;;;;;;12.05;79.37;101237.28;4988831;28;20101;-77
2022/05/21 03:16:28;;;;;;;5.00;2.85;;;;;;;12.04;79.96;101232.97;4992441;28;20060;-77
2022/05/21 03:19:33;;;;;;;7.35;3.03;;;;;;;12.03;79.96;101229.53;4993277;28;20077;-77
2022/05/21 03:22:36;;;;;;;12.40;3.42;;;;;;;12.01;80.04;101230.50;4992777;28;20065;-77
2022/05/21 03:25:40;;;;;;;6.10;3.17;;;;;;;12.18;79.09;101227.91;4996056;28;20124;-76
2022/05/21 03:28:44;;;;;;;10.82;3.33;;;;;;;12.15;79.25;101227.22;5001497;28;20481;-76
2022/05/21 03:31:47;;;;;;;5.65;3.03;;;;;;;11.99;79.03;101227.09;4994697;28;20057;-76
2022/05/21 03:34:51;;;;;;;5.80;3.00;;;;;;;12.05;79.17;101243.38;4980993;28;20045;-76
2022/05/21 03:37:55;;;;;;;8.48;3.17;;;;;;;12.17;78.69;101236.72;4992992;28;20189;-77
2022/05/21 03:40:58;;;;;;;10.55;3.20;;;;;;;12.27;78.62;101237.97;4981135;28;20053;-77
2022/05/21 03:44:02;;;;;;;6.18;2.83;;;;;;;12.13;78.70;101237.78;4992709;28;20082;-77
2022/05/21 03:47:06;;;;;;;7.65;3.25;;;;;;;12.11;78.81;101242.25;4993409;28;20185;-77
2022/05/21 03:50:11;;;;;;;4.50;3.05;;;;;;;12.07;79.08;101246.78;4992836;28;20165;-77
2022/05/21 03:53:17;;;;;;;5.22;3.30;;;;;;;11.89;79.57;101245.03;4999574;28;20099;-77
2022/05/21 03:56:20;;;;;;;8.02;3.22;;;;;;;12.02;79.04;101248.75;5012114;28;20073;-77
2022/05/21 03:59:25;;;;;;;9.07;3.20;;;;;;;11.97;79.09;101250.78;5011725;28;20049;-77
2022/05/21 04:02:29;;;;;;;7.88;3.20;;;;;;;12.09;78.93;101255.44;4992773;28;20045;-77
2022/05/21 04:05:32;;;;;;;6.15;2.80;;;;;;;12.15;78.98;101254.28;4992366;28;20053;-77
2022/05/21 04:08:36;;;;;;;8.20;3.10;;;;;;;11.95;79.66;101259.63;4993330;28;20053;-77
2022/05/21 04:11:40;;;;;;;6.75;2.70;;;;;;;12.07;79.29;101259.06;4992260;28;20085;-77
2022/05/21 04:14:44;;;;;;;15.57;3.15;;;;;;;12.08;79.56;101266.84;5003225;28;20188;-77
2022/05/21 04:17:47;;;;;;;5.78;2.63;;;;;;;12.07;78.75;101261.69;5011762;28;20112;-77
2022/05/21 04:20:50;;;;;;;6.30;3.20;;;;;;;12.10;79.66;101266.78;5011368;28;20409;-77
2022/05/21 04:23:55;;;;;;;7.85;2.97;;;;;;;12.16;79.02;101265.66;5010745;28;20049;-77
2022/05/21 04:26:59;;;;;;;7.63;3.30;;;;;;;12.19;79.42;101266.34;5010921;28;20133;-77
2022/05/21 04:30:04;;;;;;;3.67;3.08;;;;;;;12.28;79.47;101272.91;5011515;28;20563;-77
2022/05/21 04:33:08;;;;;;;5.32;3.60;;;;;;;12.34;79.52;101267.38;5011842;28;20096;-77
2022/05/21 04:36:21;;;;;;;9.68;4.60;;;;;;;12.25;80.40;101268.69;5011348;28;20179;-77
2022/05/21 04:39:25;;;;;;;5.70;3.42;;;;;;;12.33;80.20;101284.03;4994861;28;20129;-77
2022/05/21 04:42:28;;;;;;;7.55;3.33;;;;;;;12.26;80.71;101283.47;4994990;28;20081;-77
2022/05/21 04:45:32;;;;;;;6.05;2.58;;;;;;;12.24;80.87;101274.81;4995154;28;20073;-77
2022/05/21 04:48:35;;;;;;;4.80;2.92;;;;;;;12.02;81.67;101277.59;4995124;28;20172;-77
2022/05/21 04:51:39;;;;;;;6.38;2.85;;;;;;;12.10;81.62;101272.03;4994905;28;20293;-76
2022/05/21 04:54:43;;;;;;;7.55;2.47;;;;;;;12.07;80.71;101269.53;4994837;28;20110;-77
2022/05/21 04:57:46;;;;;;;7.40;3.05;;;;;;;12.07;80.48;101265.16;4994978;28;20053;-77
2022/05/21 05:00:50;;;;;;;4.20;2.10;;;;;;;12.26;80.44;101266.91;4972300;28;20557;-77
2022/05/21 05:03:53;;;;;;;9.65;2.60;;;;;;;12.34;80.29;101264.75;4979941;28;20150;-76
2022/05/21 05:06:57;;;;;;;3.30;2.40;;;;;;;12.47;80.54;101267.63;5010145;28;20084;-75
2022/05/21 05:10:01;;;;;;;5.47;3.03;;;;;;;12.66;80.94;101270.22;4998455;28;20513;-75
2022/05/21 05:13:06;;;;;;;5.43;1.90;;;;;;;12.72;80.06;101264.66;4998460;28;20673;-75
2022/05/21 05:16:10;;;;;;;3.55;1.80;;;;;;;12.79;80.20;101269.56;4996794;28;20056;-75
2022/05/21 05:19:15;;;;;;;11.35;2.05;;;;;;;12.85;78.61;101257.88;5009391;28;20049;-75
2022/05/21 05:22:21;;;;;;;5.35;1.58;;;;;;;12.61;78.00;101262.59;5007756;28;20069;-75
2022/05/21 05:25:24;;;;;;;3.63;1.30;;;;;;;12.74;76.98;101253.19;5007899;28;20064;-75
2022/05/21 05:28:29;;;;;;;3.97;1.10;;;;;;;12.84;76.19;101257.97;5009570;28;20461;-75
2022/05/21 05:31:32;;;;;;;5.20;1.52;;;;;;;13.01;76.29;101261.44;5010082;28;20452;-75
2022/05/21 05:34:36;;;;;;;6.78;1.50;;;;;;;13.30;73.76;101259.13;4997215;28;20045;-75
2022/05/21 05:37:40;;;;;;;9.75;1.75;;;;;;;13.08;74.31;101259.38;5008106;28;20132;-75
2022/05/21 05:40:46;;;;;;;6.18;2.35;;;;;;;13.17;74.08;101261.50;5008735;28;20420;-75
2022/05/21 05:43:55;;;;;;;5.25;1.60;;;;;;;13.13;74.31;101259.97;5008218;28;20096;-75
2022/05/21 05:46:59;;;;;;;6.65;2.30;;;;;;;13.01;72.21;101260.56;5008734;28;20052;-76
2022/05/21 05:50:06;;;;;;;5.97;1.67;;;;;;;12.67;73.07;101259.66;5008274;28;20052;-75
2022/05/21 05:53:09;;;;;;;9.68;1.73;;;;;;;12.90;73.68;101260.28;5008498;28;20048;-76
2022/05/21 05:56:15;;;;;;;3.33;0.90;;;;;;;12.74;74.44;101265.44;5009063;28;20049;-75
2022/05/21 06:02:59;;;;;;;3.65;0.90;;;;;;;12.80;74.21;101252.88;5008949;28;20420;-75
2022/05/21 06:06:04;;;;;;;5.07;1.00;;;;;;;12.84;74.41;101258.81;5007875;28;20064;-76
2022/05/21 06:09:07;;;;;;;3.92;1.00;;;;;;;13.00;73.20;101269.38;5009477;28;20574;-75
2022/05/21 06:12:11;;;;;;;9.18;1.65;;;;;;;13.52;74.40;101248.34;5012345;28;20048;-75
2022/05/21 06:15:16;;;;;;;4.55;0.93;;;;;;;13.80;72.83;101245.09;5011996;28;20049;-76
2022/05/21 06:18:22;;;;;;;2.97;0.70;;;;;;;13.80;71.70;101239.81;5012965;28;20469;-75
2022/05/21 06:21:26;;;;;;;6.70;1.15;;;;;;;14.05;71.32;101241.13;5004348;28;20721;-75
2022/05/21 06:24:34;;;;;;;7.75;1.02;;;;;;;13.85;69.43;101258.84;4999499;28;20088;-76
2022/05/21 06:27:38;;;;;;;6.63;1.10;;;;;;;13.63;70.57;101264.41;5008918;28;20168;-75
2022/05/21 06:30:43;;;;;;;4.75;1.00;;;;;;;13.42;69.85;101265.53;5009793;28;20394;-76
2022/05/21 06:33:47;;;;;;;10.65;2.47;;;;;;;13.66;70.41;101266.00;5008853;28;20136;-75
2022/05/21 06:36:50;;;;;;;6.40;1.30;;;;;;;13.57;69.98;101269.97;5007727;28;20179;-75
2022/05/21 06:39:54;;;;;;;5.32;1.55;;;;;;;13.90;70.06;101279.59;5007224;28;20092;-76
2022/05/21 06:43:00;;;;;;;6.03;1.08;;;;;;;13.89;69.10;101262.16;5011620;28;20511;-75
2022/05/21 06:46:04;;;;;;;5.75;0.98;;;;;;;13.85;68.67;101265.88;5011225;28;20060;-76
2022/05/21 06:49:08;;;;;;;4.03;0.98;;;;;;;13.95;69.25;101272.31;5012344;28;20089;-76
2022/05/21 06:52:11;;;;;;;4.95;1.48;;;;;;;14.06;68.30;101263.84;5010775;28;20088;-75
2022/05/21 06:55:14;;;;;;;6.72;1.83;;;;;;;14.06;68.38;101272.56;5012427;28;20087;-76
2022/05/21 06:58:18;;;;;;;6.85;1.13;;;;;;;14.14;68.55;101272.16;5012521;28;20057;-76
2022/05/21 07:01:23;;;;;;;3.28;0.98;;;;;;;14.10;67.66;101279.38;5012076;28;20049;-76
2022/05/21 07:07:48;;;;;;;5.18;0.90;;;;;;;14.44;66.17;101280.13;5012485;28;20040;-76
2022/05/21 07:10:52;;;;;;;3.88;0.88;;;;;;;14.29;66.76;101280.97;5012085;28;20045;-76
2022/05/21 07:13:56;;;;;;;5.10;1.10;;;;;;;14.33;65.77;101279.88;5012248;28;20064;-76
2022/05/21 07:17:00;;;;;;;9.88;1.45;;;;;;;14.34;66.53;101281.56;5012687;28;20466;-75
2022/05/21 07:20:13;;;;;;;5.43;1.10;;;;;;;14.49;65.61;101274.63;5011746;28;20192;-75
2022/05/21 07:23:18;;;;;;;5.15;1.00;;;;;;;14.42;66.02;101274.09;5012231;28;20424;-76
2022/05/21 07:26:23;;;;;;;8.98;1.65;;;;;;;15.27;67.75;101288.50;5012679;28;20052;-76
2022/05/21 07:29:27;;;;;;;4.82;1.10;;;;;;;15.28;65.63;101283.16;5011836;28;20509;-76
2022/05/21 07:32:30;;;;;;;7.32;1.10;;;;;;;15.52;65.38;101288.72;5010236;28;20115;-76
2022/05/21 07:35:36;;;;;;;6.72;1.35;;;;;;;15.53;65.09;101282.50;5010245;28;20041;-76
2022/05/21 07:38:40;;;;;;;7.93;1.58;;;;;;;15.64;63.44;101281.03;5009321;28;20049;-76
2022/05/21 07:41:45;;;;;;;7.57;1.30;;;;;;;15.38;63.22;101285.22;5009624;28;20041;-76
2022/05/21 07:44:48;;;;;;;4.75;0.93;;;;;;;14.99;62.69;101307.72;4997644;28;20061;-76
2022/05/21 07:47:52;;;;;;;6.10;1.30;;;;;;;14.75;64.37;101299.47;5010381;28;20072;-76
2022/05/21 07:51:04;;;;;;;8.13;1.40;;;;;;;14.81;64.58;101296.50;5011231;28;20556;-77
2022/05/21 07:54:11;;;;;;;4.70;1.10;;;;;;;14.68;64.36;101303.38;5007494;28;20547;-75
2022/05/21 07:57:20;;;;;;;5.97;1.15;;;;;;;14.55;63.97;101298.84;5010242;28;20180;-76
2022/05/21 08:00:22;;;;;;;6.88;1.50;;;;;;;14.60;65.38;101296.75;5012753;28;20133;-76
2022/05/21 08:03:26;;;;;;;5.03;1.45;;;;;;;14.55;65.16;101301.47;5015048;28;20405;-76
2022/05/21 08:06:30;;;;;;;7.78;1.65;;;;;;;14.66;65.27;101308.72;5016459;28;20080;-76
2022/05/21 08:09:34;;;;;;;4.63;0.93;;;;;;;15.18;65.05;101302.22;5015291;28;20092;-76
2022/05/21 08:12:38;;;;;;;4.93;1.10;;;;;;;15.16;64.24;101290.94;5015170;28;20053;-76
2022/05/21 08:15:41;;;;;;;3.72;0.93;;;;;;;15.10;62.77;101284.25;5015407;28;20060;-76
2022/05/21 08:18:45;;;;;;;5.32;1.08;;;;;;;15.36;63.32;101287.97;5013672;28;20057;-75
2022/05/21 08:21:48;;;;;;;4.50;0.93;;;;;;;15.29;62.24;101298.03;5014824;28;20516;-76
2022/05/21 08:28:14;;;;;;;4.88;1.08;;;;;;;15.45;62.70;101297.13;5015403;28;20045;-76
2022/05/21 08:31:18;;;;;;;4.32;0.73;;;;;;;15.22;61.33;101293.19;5015575;28;20100;-76
2022/05/21 08:34:22;;;;;;;3.35;1.10;;;;;;;15.19;61.66;101288.09;5015198;28;20135;-76
2022/05/21 08:37:27;;;;;;;7.68;1.30;;;;;;;15.28;61.24;101280.53;5015212;28;20045;-76
2022/05/21 08:40:50;;;;;;;7.82;1.08;;;;;;;15.85;60.10;101270.94;5015808;28;20096;-77
2022/05/21 08:44:09;;;;;;;9.23;1.75;;;;;;;15.98;59.37;101283.25;5015362;28;20552;-77
2022/05/21 08:47:15;;;;;;;5.10;1.08;;;;;;;15.82;60.10;101279.91;5014389;28;20101;-77
2022/05/21 08:50:21;;;;;;;6.03;0.85;;;;;;;15.45;60.75;101289.19;5013350;28;20168;-77
2022/05/21 08:53:28;;;;;;;4.85;1.20;;;;;;;15.05;62.58;101281.88;5014989;28;20178;-77
2022/05/21 08:56:32;;;;;;;12.90;4.10;;;;;;;15.37;62.14;101289.66;5014497;28;20648;-78
2022/05/21 09:03:18;;;;;;;7.88;1.67;;;;;;;15.73;60.15;101269.91;5012301;28;20128;-76
2022/05/21 09:06:33;;;;;;;4.47;1.35;;;;;;;15.89;58.28;101268.03;5012795;28;20463;-76
2022/05/21 09:09:40;;;;;;;6.00;1.27;;;;;;;16.19;58.60;101274.94;5013384;28;20657;-76
2022/05/21 09:12:57;;;;;;;4.50;1.40;;;;;;;16.34;59.01;101270.50;5014578;28;20053;-76
2022/05/21 09:19:27;;;;;;;3.83;1.27;;;;;;;15.56;58.85;101295.50;5001014;28;20049;-77
2022/05/21 09:22:31;;;;;;;2.78;0.80;;;;;;;15.84;59.19;101278.03;4994140;28;20473;-76
2022/05/21 09:25:35;;;;;;;6.32;1.42;;;;;;;16.10;58.55;101283.44;4994392;28;20097;-76
2022/05/21 09:28:39;;;;;;;4.55;0.93;;;;;;;16.14;57.60;101279.66;4983122;28;20100;-76
2022/05/21 09:31:42;;;;;;;3.88;0.95;;;;;;;16.08;57.79;101280.06;4994716;28;20080;-76
2022/05/21 09:35:06;;;;;;;7.80;1.33;;;;;;;16.21;57.52;101281.00;5004999;28;20192;-76
2022/05/21 09:38:19;;;;;;;8.05;1.15;;;;;;;16.16;57.55;101289.19;4994846;28;20049;-76
2022/05/21 09:41:27;;;;;;;4.68;0.98;;;;;;;15.83;57.95;101291.31;4995124;28;20475;-77
2022/05/21 09:48:12;;;;;;;6.00;1.17;;;;;;;15.82;59.38;101301.00;5009270;28;20053;-76
2022/05/21 09:51:32;;;;;;;5.32;1.10;;;;;;;16.02;56.64;101291.84;5009475;28;20084;-77
2022/05/21 09:54:35;;;;;;;7.90;1.00;;;;;;;16.22;56.54;101280.88;5009111;28;20405;-76
2022/05/21 09:57:43;;;;;;;3.53;0.80;;;;;;;16.37;56.80;101286.97;5008877;28;20107;-76
2022/05/21 10:00:54;;;;;;;8.75;1.15;;;;;;;16.37;55.73;101272.91;5007450;28;20629;-76
2022/05/21 10:04:00;;;;;;;10.50;1.48;;;;;;;16.52;56.64;101280.69;4996890;28;20225;-76
2022/05/21 10:11:00;;;;;;;8.73;1.42;;;;;;;16.73;55.96;101282.88;5009478;28;20104;-76
2022/05/21 10:14:11;;;;;;;8.00;1.48;;;;;;;16.51;55.20;101275.50;5009153;28;20040;-76
2022/05/21 10:17:39;;;;;;;4.47;1.13;;;;;;;16.53;56.20;101276.28;4990852;28;20088;-77
2022/05/21 10:20:47;;;;;;;4.40;0.90;;;;;;;16.84;55.45;101284.81;5008897;28;20044;-76
2022/05/21 10:24:01;;;;;;;5.20;1.20;;;;;;;16.76;54.31;101288.00;5009295;28;20354;-77
2022/05/21 10:27:09;;;;;;;5.65;1.67;;;;;;;16.72;54.27;101282.03;5008414;28;20056;-77
2022/05/21 10:30:57;;;;;;;5.80;1.23;;;;;;;16.93;54.28;101274.50;5008434;28;20538;-77
2022/05/21 10:34:40;;;;;;;7.47;1.75;;;;;;;16.86;54.71;101267.94;5007728;28;20436;-76
2022/05/21 10:38:02;;;;;;;4.72;1.10;;;;;;;16.83;54.07;101273.41;5007665;28;20409;-77
2022/05/21 10:41:24;;;;;;;5.60;1.27;;;;;;;17.09;54.29;101266.38;5006962;28;20141;-76
2022/05/21 10:44:49;;;;;;;3.92;1.05;;;;;;;17.35;53.31;101267.22;4995846;28;20061;-76
2022/05/21 10:48:03;;;;;;;5.18;1.23;;;;;;;17.27;54.30;101256.38;5006777;28;20108;-76
2022/05/21 10:51:19;;;;;;;4.97;1.23;;;;;;;16.99;52.69;101261.84;5008286;28;20052;-76
2022/05/21 10:54:44;;;;;;;3.55;1.00;;;;;;;16.91;53.60;101251.75;5007265;28;20475;-76
2022/05/21 10:58:25;;;;;;;4.63;1.00;;;;;;;17.30;53.64;101256.16;5007217;28;20155;-76
2022/05/21 11:01:44;;;;;;;7.30;1.15;;;;;;;17.37;53.38;101249.47;5007595;28;20042;-77
2022/05/21 11:05:31;;;;;;;3.80;0.90;;;;;;;17.46;53.82;101250.66;5007973;28;20052;-76
2022/05/21 11:08:53;;;;;;;5.50;1.45;;;;;;;17.77;52.96;101249.38;5007921;28;20040;-76
2022/05/21 11:12:11;;;;;;;8.00;1.57;;;;;;;17.52;51.97;101249.38;5007352;28;20521;-76
2022/05/21 11:15:47;;;;;;;5.75;1.23;;;;;;;17.71;51.98;101263.00;5006723;28;20394;-76
2022/05/21 11:19:00;;;;;;;5.60;1.02;;;;;;;17.37;52.42;101256.56;4994086;28;20563;-76
2022/05/21 11:22:16;;;;;;;;;;;;;;;17.46;52.23;101261.22;5008911;28;20053;-76
2022/05/21 11:25:46;;;;;;;5.30;0.93;;;;;;;18.10;51.78;101250.56;5009200;28;20515;-76
2022/05/21 11:28:57;;;;;;;7.55;1.50;;;;;;;18.19;50.23;101247.25;5009320;28;20129;-76
2022/05/21 11:39:01;;;;;;;6.78;1.40;;;;;;;17.61;50.70;101235.50;5011176;28;20191;-77
2022/05/21 11:42:05;;;;;;;5.40;1.20;;;;;;;17.70;51.50;101242.78;4999674;28;20068;-76
2022/05/21 11:45:08;;;;;;;6.88;1.10;;;;;;;17.81;51.37;101242.06;5011408;28;20056;-76
2022/05/21 11:48:19;;;;;;;6.85;1.15;;;;;;;17.74;50.26;101249.56;5010580;28;20053;-76
2022/05/21 11:51:25;;;;;;;5.65;1.00;;;;;;;17.63;50.60;101249.47;5010093;28;20343;-76
2022/05/21 11:54:54;;;;;;;3.97;0.90;;;;;;;17.65;51.11;101239.63;5011848;28;20057;-76
2022/05/21 11:58:00;;;;;;;5.22;1.17;;;;;;;17.80;51.54;101248.28;5011984;28;20377;-76
2022/05/21 12:01:04;;;;;;;5.93;1.30;;;;;;;17.96;50.73;101245.38;5012397;28;20045;-77
2022/05/21 12:04:21;;;;;;;4.25;0.80;;;;;;;18.41;49.51;101237.69;5011537;28;20076;-76
2022/05/21 12:07:44;;;;;;;11.35;1.90;;;;;;;18.42;48.56;101239.41;5009647;28;20049;-76
2022/05/21 12:11:04;;;;;;;6.45;1.77;;;;;;;18.71;47.67;101230.13;5011212;28;20100;-76
2022/05/21 12:14:27;;;;;;;4.63;1.05;;;;;;;18.62;47.53;101233.47;5012550;28;20041;-77
2022/05/21 12:17:43;;;;;;;4.97;1.38;;;;;;;18.37;47.06;101234.44;5009035;28;20092;-76
2022/05/21 12:20:48;;;;;;;4.70;1.02;;;;;;;18.73;47.30;101233.56;5010509;28;20048;-77
2022/05/21 12:23:51;;;;;;;4.93;1.77;;;;;;;18.63;47.46;101227.19;5011512;28;20401;-77
2022/05/21 12:27:03;;;;;;;6.90;0.95;;;;;;;18.61;47.77;101223.84;5011269;28;20057;-76
2022/05/21 12:30:27;;;;;;;4.43;0.90;;;;;;;18.88;45.72;101214.78;5011494;28;20040;-76
2022/05/21 12:34:00;;;;;;;5.10;0.93;;;;;;;19.25;46.63;101218.94;5011392;28;20044;-76
2022/05/21 12:37:15;;;;;;;4.60;0.90;;;;;;;19.92;43.74;101214.59;4992147;28;20057;-77
2022/05/21 12:40:29;;;;;;;6.07;1.17;;;;;;;19.94;43.31;101212.66;4992544;28;20484;-77
2022/05/21 12:43:47;;;;;;;3.28;0.82;;;;;;;20.51;42.08;101208.88;4992280;28;20140;-76
2022/05/21 12:46:52;;;;;;;8.15;1.95;;;;;;;20.79;41.61;101203.91;5006897;28;20125;-76
2022/05/21 12:49:57;;;;;;;4.30;1.20;;;;;;;20.49;42.23;101210.78;5010310;28;20033;-76
2022/05/21 12:53:00;;;;;;;5.03;1.15;;;;;;;20.41;41.66;101207.91;5010887;28;20056;-77
2022/05/21 12:56:27;;;;;;;6.03;1.70;;;;;;;20.37;41.40;101201.19;5010652;28;20061;-75
2022/05/21 12:59:31;;;;;;;8.30;2.58;;;;;;;20.40;41.05;101196.47;5010536;28;20095;-76
2022/05/21 13:02:45;;;;;;;4.75;1.05;;;;;;;19.88;43.64;101197.25;5011329;28;20580;-76
2022/05/21 13:05:54;;;;;;;5.05;1.20;;;;;;;19.10;43.69;101198.94;4994081;28;20100;-76
2022/05/21 13:09:01;;;;;;;4.50;1.58;;;;;;;19.16;44.99;101200.25;5009387;28;20120;-76
2022/05/21 13:12:13;;;;;;;3.90;1.10;;;;;;;19.87;43.80;101190.22;5009938;28;20045;-76
2022/05/21 13:15:23;;;;;;;6.18;2.60;;;;;;;20.29;41.54;101179.72;5010047;28;20331;-76
2022/05/21 13:18:48;;;;;;;7.72;2.00;;;;;;;20.74;41.15;101179.53;5009308;28;20053;-76
2022/05/21 13:21:54;;;;;;;7.28;1.63;;;;;;;21.20;40.44;101183.56;5009862;28;20409;-76
2022/05/21 13:25:05;;;;;;;4.57;1.00;;;;;;;21.28;40.39;101181.94;5009429;28;20560;-76
2022/05/21 13:28:17;;;;;;;4.20;1.00;;;;;;;21.53;39.41;101164.66;5009872;28;20048;-76
2022/05/21 13:31:23;;;;;;;9.20;1.25;;;;;;;20.91;39.51;101176.28;5009728;28;20052;-76
2022/05/21 13:34:35;;;;;;;3.15;1.00;;;;;;;21.91;37.74;101163.06;5008246;28;20069;-76
2022/05/21 13:37:44;;;;;;;;;;;;;;;22.59;37.26;101163.13;5010041;28;20049;-76
2022/05/21 13:40:52;;;;;;;6.68;1.42;;;;;;;22.56;37.73;101157.19;5009545;28;20423;-76
2022/05/21 13:43:57;;;;;;;2.97;0.82;;;;;;;22.06;37.83;101156.38;4996765;28;20049;-76
2022/05/21 13:47:07;;;;;;;3.65;0.90;;;;;;;21.15;38.36;101157.34;4999117;28;20104;-76
2022/05/21 13:50:11;;;;;;;4.63;1.80;;;;;;;22.56;37.87;101151.88;4996314;28;20056;-76
2022/05/21 13:53:23;;;;;;;5.75;1.60;;;;;;;22.45;36.52;101150.22;5008747;28;20041;-76
2022/05/21 13:56:38;;;;;;;4.65;1.48;;;;;;;23.20;34.35;101149.34;5008249;28;20088;-76
2022/05/21 13:59:52;;;;;;;6.43;1.55;;;;;;;23.76;34.57;101142.16;5007059;28;20044;-76
2022/05/21 14:03:16;;;;;;;8.10;2.15;;;;;;;23.95;35.50;101137.69;5007712;28;20084;-76
2022/05/21 14:06:23;;;;;;;4.03;1.27;;;;;;;26.88;27.64;101126.41;5009222;28;20044;-77
2022/05/21 14:09:29;;;;;;;9.38;1.63;;;;;;;25.75;29.11;101118.22;5009432;28;20084;-77
2022/05/21 14:12:47;;;;;;;6.60;1.40;;;;;;;23.42;35.54;101124.09;5009221;28;20084;-77
2022/05/21 14:15:52;;;;;;;4.97;1.50;;;;;;;25.07;31.58;101121.81;5007166;28;20091;-77
2022/05/21 14:19:06;;;;;;;4.72;1.48;;;;;;;27.56;27.17;101107.00;5008917;28;20426;-77
2022/05/21 14:22:21;;;;;;;4.90;1.10;;;;;;;28.32;25.73;101115.19;5007364;28;20081;-77
2022/05/21 14:25:33;;;;;;;11.63;7.15;;;;;;;25.20;32.02;101111.53;5008074;28;20049;-77
2022/05/21 14:28:36;;;;;;;;;;;;;;;24.53;33.50;101118.50;5008504;28;20100;-77
2022/05/21 14:31:40;;;;;;;4.72;1.40;;;;;;;29.67;25.74;101101.53;5007966;28;20356;-77
2022/05/21 14:34:45;;;;;;;4.60;1.17;;;;;;;31.36;22.93;101093.41;4996146;28;20048;-77
2022/05/21 14:37:53;;;;;;;4.68;1.30;;;;;;;30.20;22.75;101091.28;5008412;28;20045;-77
2022/05/21 14:41:00;;;;;;;3.73;1.20;;;;;;;27.70;25.78;101099.22;5007801;28;20099;-77
2022/05/21 14:44:16;;;;;;;4.18;1.10;;;;;;;29.94;24.22;101088.34;5006953;28;20819;-77
2022/05/21 14:54:09;;;;;;;2.75;0.57;;;;;;;28.40;24.51;101074.81;5007622;28;20121;-77
2022/05/21 14:57:15;;;;;;;4.55;0.98;;;;;;;25.66;27.94;101079.88;5007867;28;20432;-77
2022/05/21 15:00:20;;;;;;;3.35;1.05;;;;;;;27.85;25.16;101073.25;4989261;28;20049;-76
2022/05/21 15:03:24;;;;;;;4.72;1.20;;;;;;;27.92;26.44;101068.00;4988670;28;20088;-77
2022/05/21 15:06:32;;;;;;;3.58;1.15;;;;;;;29.50;23.73;101067.75;4988867;28;20084;-77
2022/05/21 15:09:39;;;;;;;3.13;1.10;;;;;;;32.03;21.65;101065.47;4988615;28;20045;-77
2022/05/21 15:12:42;;;;;;;5.30;1.20;;;;;;;28.97;24.37;101052.66;5000480;28;20115;-77
2022/05/21 15:15:46;;;;;;;3.08;1.02;;;;;;;29.10;24.96;101051.13;4992175;28;20057;-77
2022/05/21 15:18:49;;;;;;;3.28;0.90;;;;;;;26.82;27.73;101060.88;4991865;28;20445;-77
2022/05/21 15:21:57;;;;;;;3.53;0.77;;;;;;;24.03;31.87;101058.47;4991865;28;20053;-77
2022/05/21 15:25:04;;;;;;;4.45;1.38;;;;;;;26.89;27.36;101047.59;4990754;28;20116;-77
2022/05/21 15:28:11;;;;;;;5.97;1.40;;;;;;;27.60;27.39;101037.66;5010016;28;20096;-77
2022/05/21 15:31:14;;;;;;;4.53;1.73;;;;;;;28.25;25.63;101037.13;5012203;28;20089;-77
2022/05/21 15:34:18;;;;;;;6.85;2.25;;;;;;;31.52;22.99;101038.16;5011249;28;20104;-77
2022/05/21 15:37:22;;;;;;;5.03;1.92;;;;;;;32.07;21.09;101026.16;4988081;28;20188;-77
2022/05/21 15:40:26;;;;;;;4.22;1.48;;;;;;;33.18;20.28;101018.94;5010809;28;20407;-77
2022/05/21 15:43:30;;;;;;;5.40;1.15;;;;;;;28.96;22.44;101020.50;5009544;28;20798;-78
2022/05/21 15:46:34;;;;;;;6.07;1.80;;;;;;;28.46;24.33;101023.00;5011159;28;20053;-77
2022/05/21 15:49:37;;;;;;;5.40;1.40;;;;;;;31.33;22.13;101010.03;5011468;28;20563;-77
2022/05/21 15:52:43;;;;;;;4.85;1.63;;;;;;;33.20;20.17;100996.00;5011711;28;20053;-77
2022/05/21 15:55:47;;;;;;;8.43;2.58;;;;;;;30.69;21.71;101006.69;5011166;28;20057;-77